»·PEaware :: N665MM KBUR-KLAS

N665MM :: KBUR-KLAS

FLIGHT INFORMATION

Flight Status: Arrived
Operator: Privately registered:
United States
More flights under this callsign
Pilot: Colin P. (16825)
Aircraft: MOONEY M-20 201 202 205 220 ATS MSE
(M20P)
More flights by this aircraft type
Origin: KBUR Bob Hope-Burbank
United States
Destination: KLAS McCarran Intl
United States
More flights between these airports :: More routes between these airports
Route: +KBUR VNY3 DAG CRESO04 KLAS
File this flight plan on PilotEdge
Remarks: I-5 rating test
Altitude:
(Current/Filed)
17,000ft
Speed:
(Current/Filed)
160kts
Departed: 26-Sep-18 12:25 PM
Arrived: 26-Sep-18 02:07 PM
Distance/Time
Traveled:
193nm/1:41
Distance/Time
To Go:
Arrived

Flight Plot

Page will automatically refresh every two minutes.

Flight plan parsing failed; only flown route is shown


Map Options




Map Legend


Flown Route
Filed Route
Departure Airport
Arrival Airport
Navaid (VOR, NDB)
Fix

Horizontal Profiles

Position Reports

Time Latitude Longitude Heading Altitude Ground
Speed
26-Sep-18 11:30 34.200203 -118.358745 263 732ft 0kts
26-Sep-18 11:31 34.200203 -118.358745 263 732ft 0kts
26-Sep-18 11:32 34.200203 -118.358745 263 732ft 0kts
26-Sep-18 11:33 34.200203 -118.358745 263 732ft 0kts
26-Sep-18 11:34 34.200203 -118.358745 263 732ft 0kts
26-Sep-18 11:35 34.200203 -118.358745 263 732ft 0kts
26-Sep-18 11:36 34.200203 -118.358745 263 732ft 0kts
26-Sep-18 11:37 34.200203 -118.358745 263 732ft 0kts
26-Sep-18 11:38 34.200203 -118.358745 263 732ft 0kts
26-Sep-18 11:39 34.200203 -118.358745 263 732ft 0kts
26-Sep-18 11:40 34.200203 -118.358745 263 732ft 0kts
26-Sep-18 11:41 34.200203 -118.358745 263 732ft 0kts
26-Sep-18 11:42 34.200203 -118.358745 263 732ft 0kts
26-Sep-18 11:43 34.200203 -118.358745 263 732ft 0kts
26-Sep-18 11:44 34.200203 -118.358745 263 732ft 0kts
26-Sep-18 11:45 34.200203 -118.358745 263 732ft 0kts
26-Sep-18 11:46 34.200203 -118.358745 263 732ft 0kts
26-Sep-18 11:47 34.200203 -118.358745 263 732ft 0kts
26-Sep-18 11:48 34.200203 -118.358745 263 732ft 0kts
26-Sep-18 11:49 34.200203 -118.358745 263 732ft 0kts
26-Sep-18 11:50 34.200203 -118.358745 263 732ft 0kts
26-Sep-18 11:51 34.200203 -118.358745 263 732ft 0kts
26-Sep-18 11:52 34.200203 -118.358745 263 732ft 0kts
26-Sep-18 11:53 34.200203 -118.358745 263 732ft 0kts
26-Sep-18 11:54 34.200203 -118.358745 263 732ft 0kts
26-Sep-18 11:55 34.200203 -118.358745 263 732ft 0kts
26-Sep-18 11:56 34.200203 -118.358745 263 732ft 0kts
26-Sep-18 11:57 34.200203 -118.358745 263 732ft 0kts
26-Sep-18 11:58 34.200203 -118.358745 263 732ft 0kts
26-Sep-18 11:59 34.200202 -118.358752 263 732ft 0kts
26-Sep-18 12:00 34.200923 -118.358482 345 732ft 6kts
26-Sep-18 12:01 34.203025 -118.359063 353 732ft 8kts
26-Sep-18 12:02 34.205388 -118.359709 345 732ft 8kts
26-Sep-18 12:03 34.207797 -118.360384 344 732ft 10kts
26-Sep-18 12:04 34.210745 -118.361182 346 732ft 11kts
26-Sep-18 12:05 34.211089 -118.361126 53 732ft 0kts
26-Sep-18 12:06 34.211089 -118.361126 53 732ft 0kts
26-Sep-18 12:07 34.211089 -118.361126 53 732ft 0kts
26-Sep-18 12:08 34.211089 -118.361126 53 732ft 0kts
26-Sep-18 12:09 34.210625 -118.359977 161 732ft 28kts
26-Sep-18 12:10 34.195988 -118.355835 165 732ft 7kts
26-Sep-18 12:11 34.195409 -118.356885 357 732ft 5kts
26-Sep-18 12:12 34.196989 -118.358036 342 732ft 0kts
26-Sep-18 12:13 34.198218 -118.357960 2 732ft 17kts
26-Sep-18 12:14 34.199819 -118.358567 344 732ft 0kts
26-Sep-18 12:15 34.199819 -118.358567 344 732ft 0kts
26-Sep-18 12:16 34.199819 -118.358567 344 732ft 0kts
26-Sep-18 12:17 34.199819 -118.358567 344 732ft 0kts
26-Sep-18 12:18 34.199819 -118.358567 344 732ft 0kts
26-Sep-18 12:19 34.199877 -118.358586 344 732ft 0kts
26-Sep-18 12:20 34.199877 -118.358586 344 732ft 0kts
26-Sep-18 12:21 34.199877 -118.358586 344 732ft 0kts
26-Sep-18 12:22 34.199877 -118.358586 344 732ft 0kts
26-Sep-18 12:23 34.203139 -118.359070 347 732ft 16kts
26-Sep-18 12:24 34.209161 -118.360736 346 732ft 20kts
26-Sep-18 12:25 34.211630 -118.361247 31 732ft 0kts
26-Sep-18 12:26 34.211921 -118.360954 58 732ft 10kts
26-Sep-18 12:27 34.201957 -118.357840 171 920ft 92kts
26-Sep-18 12:28 34.179003 -118.372039 231 1976ft 109kts
26-Sep-18 12:29 34.159494 -118.402625 234 2895ft 121kts
26-Sep-18 12:30 34.140586 -118.435288 231 3879ft 119kts
26-Sep-18 12:31 34.119953 -118.466761 230 4795ft 120kts
26-Sep-18 12:32 34.133196 -118.494968 358 5519ft 131kts
26-Sep-18 12:33 34.167513 -118.493521 21 6106ft 144kts
26-Sep-18 12:34 34.203404 -118.483172 19 6959ft 137kts
26-Sep-18 12:35 34.239670 -118.467791 359 7627ft 140kts
26-Sep-18 12:36 34.277741 -118.464193 355 8420ft 130kts
26-Sep-18 12:37 34.313948 -118.468873 2 9114ft 133kts
26-Sep-18 12:38 34.350970 -118.460526 16 9719ft 135kts
26-Sep-18 12:39 34.381395 -118.460837 3 10348ft 133kts
26-Sep-18 12:40 34.410144 -118.422605 56 10851ft 134kts
26-Sep-18 12:41 34.429340 -118.382108 55 11178ft 150kts
26-Sep-18 12:42 34.452664 -118.349187 57 12107ft 119kts
26-Sep-18 12:43 34.468964 -118.323151 58 12637ft 115kts
26-Sep-18 12:44 34.487809 -118.292629 60 13209ft 113kts
26-Sep-18 12:45 34.501494 -118.259127 56 13734ft 115kts
26-Sep-18 12:46 34.521941 -118.229973 55 14268ft 114kts
26-Sep-18 12:47 34.544711 -118.195756 56 14859ft 112kts
26-Sep-18 12:48 34.560565 -118.171561 55 15258ft 111kts
26-Sep-18 12:49 34.582621 -118.137903 55 15796ft 109kts
26-Sep-18 12:50 34.598092 -118.114314 55 16162ft 108kts
26-Sep-18 12:51 34.606856 -118.081419 77 16576ft 103kts
26-Sep-18 12:52 34.613002 -118.047722 76 16970ft 102kts
26-Sep-18 12:53 34.616022 -118.031030 76 17034ft 112kts
26-Sep-18 12:54 34.619726 -118.010299 77 17034ft 124kts
26-Sep-18 12:55 34.628258 -117.964701 92 16694ft 158kts
26-Sep-18 12:56 34.615360 -117.899768 94 14691ft 221kts
26-Sep-18 12:57 34.626712 -117.829404 74 13730ft 211kts
26-Sep-18 12:58 34.644907 -117.756659 73 11733ft 233kts
26-Sep-18 12:59 34.682138 -117.696716 60 10488ft 212kts
26-Sep-18 13:00 34.696867 -117.632923 78 10134ft 186kts
26-Sep-18 13:01 34.713237 -117.577297 64 10105ft 171kts
26-Sep-18 13:02 34.726558 -117.523715 77 10074ft 167kts
26-Sep-18 13:03 34.738461 -117.470181 73 10074ft 164kts
26-Sep-18 13:04 34.751693 -117.417835 73 10074ft 163kts
26-Sep-18 13:05 34.765050 -117.365276 73 10075ft 162kts
26-Sep-18 13:06 34.778116 -117.313697 73 10075ft 163kts
26-Sep-18 13:07 34.791452 -117.260941 73 10069ft 163kts
26-Sep-18 13:08 34.804804 -117.208021 74 10061ft 164kts
26-Sep-18 13:09 34.818157 -117.154980 74 10051ft 164kts
26-Sep-18 13:10 34.831397 -117.102289 74 10067ft 163kts
26-Sep-18 13:11 34.844597 -117.049657 74 10060ft 163kts
26-Sep-18 13:12 34.857835 -116.996761 74 10054ft 163kts
26-Sep-18 13:13 34.871068 -116.943776 74 10051ft 163kts
26-Sep-18 13:14 34.884277 -116.890793 74 10032ft 165kts
26-Sep-18 13:15 34.897618 -116.837144 73 10031ft 166kts
26-Sep-18 13:16 34.910957 -116.783386 73 10031ft 166kts
26-Sep-18 13:17 34.924354 -116.729284 73 10031ft 167kts
26-Sep-18 13:18 34.937737 -116.675126 73 10031ft 167kts
26-Sep-18 13:19 34.951166 -116.620664 72 10032ft 168kts
26-Sep-18 13:20 34.966274 -116.567007 59 10035ft 168kts
26-Sep-18 13:21 34.989102 -116.517104 60 10046ft 169kts
26-Sep-18 13:22 35.011566 -116.466579 60 10057ft 170kts
26-Sep-18 13:23 35.034071 -116.415842 61 10071ft 171kts
26-Sep-18 13:24 35.056858 -116.364408 61 10078ft 173kts
26-Sep-18 13:25 35.078819 -116.314799 61 10077ft 173kts
26-Sep-18 13:26 35.101457 -116.263539 61 10077ft 173kts
26-Sep-18 13:27 35.123881 -116.212706 61 10078ft 174kts
26-Sep-18 13:28 35.147232 -116.161037 61 10078ft 174kts
26-Sep-18 13:29 35.170162 -116.108954 61 10078ft 174kts
26-Sep-18 13:30 35.193028 -116.056886 61 10078ft 174kts
26-Sep-18 13:31 35.215915 -116.004698 61 10078ft 174kts
26-Sep-18 13:32 35.238829 -115.952365 61 10078ft 174kts
26-Sep-18 13:33 35.261674 -115.900104 61 10079ft 174kts
26-Sep-18 13:34 35.284406 -115.848023 61 10083ft 174kts
26-Sep-18 13:35 35.307113 -115.795922 61 10087ft 174kts
26-Sep-18 13:36 35.337959 -115.750872 46 10091ft 173kts
26-Sep-18 13:37 35.370401 -115.707620 46 10094ft 173kts
26-Sep-18 13:38 35.402944 -115.664191 46 10096ft 173kts
26-Sep-18 13:39 35.435434 -115.620791 46 10096ft 173kts
26-Sep-18 13:40 35.467993 -115.577213 46 10096ft 173kts
26-Sep-18 13:41 35.500388 -115.533825 46 10096ft 173kts
26-Sep-18 13:42 35.532880 -115.490267 46 10096ft 173kts
26-Sep-18 13:43 35.565278 -115.446811 46 10096ft 173kts
26-Sep-18 13:44 35.598716 -115.403003 48 9898ft 182kts
26-Sep-18 13:45 35.633364 -115.355191 46 9496ft 192kts
26-Sep-18 13:46 35.669360 -115.306599 47 8793ft 201kts
26-Sep-18 13:47 35.704451 -115.259278 47 7825ft 170kts
26-Sep-18 13:48 35.735338 -115.217653 47 6821ft 162kts
26-Sep-18 13:49 35.762068 -115.180859 52 6896ft 110kts
26-Sep-18 13:50 35.784813 -115.149819 44 7058ft 141kts
26-Sep-18 13:51 35.815054 -115.111358 45 7049ft 167kts
26-Sep-18 13:52 35.847605 -115.068353 49 7040ft 175kts
26-Sep-18 13:53 35.879170 -115.021869 49 7031ft 179kts
26-Sep-18 13:54 35.910114 -114.976113 49 7017ft 150kts
26-Sep-18 13:55 35.936767 -114.940168 41 7018ft 147kts
26-Sep-18 13:56 35.967469 -114.904064 47 7018ft 157kts
26-Sep-18 13:57 36.001942 -114.877401 346 7016ft 159kts
26-Sep-18 13:58 36.044577 -114.893842 343 7016ft 161kts
26-Sep-18 13:59 36.083943 -114.909456 343 7014ft 138kts
26-Sep-18 14:00 36.120397 -114.923910 343 7013ft 142kts
26-Sep-18 14:01 36.158333 -114.938803 343 7010ft 144kts
26-Sep-18 14:02 36.184464 -114.968443 274 6768ft 149kts
26-Sep-18 14:03 36.182114 -115.017830 264 5048ft 141kts
26-Sep-18 14:04 36.176246 -115.062209 258 4037ft 124kts
26-Sep-18 14:05 36.167949 -115.101370 252 3387ft 109kts
26-Sep-18 14:06 36.151261 -115.126807 203 3074ft 89kts
26-Sep-18 14:07 36.128737 -115.139909 204 2726ft 89kts
26-Sep-18 14:08 36.106082 -115.152728 205 2306ft 90kts
26-Sep-18 14:09 36.089675 -115.162185 206 2121ft 15kts
26-Sep-18 14:10 36.089363 -115.163439 272 2126ft 0kts
26-Sep-18 14:11 36.089363 -115.163439 272 2126ft 0kts
26-Sep-18 14:12 36.089363 -115.163439 272 2126ft 0kts
26-Sep-18 14:13 36.089365 -115.163572 269 2127ft 4kts
26-Sep-18 14:14 36.089744 -115.165340 354 2132ft 0kts
26-Sep-18 14:15 36.089744 -115.165340 354 2132ft 0kts
26-Sep-18 14:16 36.089744 -115.165340 354 2132ft 0kts

Navigation Log

Ident Type
Flight plan parsing failed, navigation log unavailable